SKARMROC

Guest
Details From SKAR - El Eden
To MROC - San Jose Juan Santamaria Intl
Flight Number -
Tags Generated
Created
Modified
Stats Distance 605 nm / 1,120 km
Max Altitude 0 ft / 0 m
Waypoints 6
Social Downloads 3
Likes 0
Share VATSIM

Download

Looking for another format? Having issues loading an existing format? Contact us
Advertisement - Login to hide

Notes

Generated

Route

SKAR NQI STG OSITO R1514 MROC

ID Type Via Altitude Latitude Longitude Leg Dist Tot Dist Heading (true) Name
O SKAR APT - 0 ft / 0 m 4.44339˚ -75.76869˚ - 0 nm - -
NQI NDB - 0 ft / 0 m 5.71361˚ -77.26000˚ 117 nm 117 nm 311° / 310° NUQUI NDB
STG VOR - 0 ft / 0 m 8.08903˚ -80.93972˚ 261 nm 379 nm 303° / 303° -
OSITO FIX - 0 ft / 0 m 8.87631˚ -82.17483˚ 87 nm 466 nm 303° / 303° -
R1514 FIX - 0 ft / 0 m 9.98900˚ -84.22186˚ 138 nm 604 nm 299° / 299° -
O MROC APT - 0 ft / 0 m 9.98900˚ -84.22186˚ 0 nm 604 nm 0° / 180° -

Altitude Profile

Advertisement - Login to hide

Weather


0- 5 10 15 20 25 30 35+ Temperature / ° C

Clouds and Precipitation
Forecast for 2017-12-13 06:00 UTC. Updated an hour ago

Ground ~20,000 ft ~40,000 ft Winds

SKAR

Details ICAO SKAR (AXM)
Name EL EDEN
Region Colombia
Timezone America/Bogota (UTC-5.0)
Stats Elevation 3,990 ft / 1,216 m (AMSL)
Location 4.452775° -75.766487°
Runways 1
Magnetic Variation 6.141° W

METAR

SKAR 130400Z 00000KT 9999 SCT020 SCT090 19/18 A3012

Decode

TAF

Not found

Departure Runways

ID Width Length Bearing (true) Bearing (mag) Surface Threshold Offset Overrun Length
02 118 ft / 36 m 7,031 ft / 2,143 m 13.15° 19.29° Asphalt 0 ft / 0 m 0 ft / 0 m
20 118 ft / 36 m 7,031 ft / 2,143 m 193.15° 199.29° Asphalt 0 ft / 0 m 0 ft / 0 m

MROC

Details ICAO MROC (SJO)
Name San Jose Juan Santamaria Intl
Region Costa Rica
Timezone America/Costa_Rica (UTC-6.0)
Stats Elevation 3,021 ft / 921 m (AMSL)
Location 9.993927° -84.208884°
Runways 1
Magnetic Variation 1.718° W

METAR

MROC 130400Z 10012KT 070V130 CAVOK 20/15 A3008 NOSIG

Decode

TAF

TAF MROC 122300Z 1300/1324 07010KT 9999 FEW030 TX22/1318Z TN18/1310Z TEMPO 1312/1318 09015G30KT

Decode

Destination Runways

ID Width Length Bearing (true) Bearing (mag) Surface Threshold Offset Overrun Length
07 151 ft / 46 m 9,994 ft / 3,046 m 68.91° 70.63° Asphalt 0 ft / 0 m 200 ft / 61 m
25 151 ft / 46 m 9,994 ft / 3,046 m 248.92° 250.64° Asphalt 1,969 ft / 600 m 200 ft / 61 m

Approach Navaids

Runway Type Ident Frequency Range Bearing (true) Bearing (mag) Slope Elevation
07 Localiser IOCO 109.50 MHz 18 nm / 33 km 68.89° 70.61° - 930 ft / 283 m (AMSL)
07 Glidescope IOCO 109.50 MHz 10 nm / 19 km 68.91° 70.63° 3.00° 930 ft / 283 m (AMSL)
07 DME IOCO 109.50 MHz 18 nm / 33 km - - - 930 ft / 283 m (AMSL)